Time;durP1;ratioP1;P1;durP2;ratioP2;P2;SDS_P1;SDS_P2;PMS_P1;PMS_P2;Temp;Humidity;BMP_temperature;BMP_pressure;BME280_temperature;BME280_humidity;BME280_pressure;Samples;Min_cycle;Max_cycle;Signal;HPM_P1;HPM_P2
2024/02/28 00:01:21;;;;;;;0.70;0.70;;;2.00;99.90;;;;;;6153391;23;20009;-79
2024/02/28 00:03:47;;;;;;;1.23;1.10;;;2.10;99.90;;;;;;6101617;23;20021;-77
2024/02/28 00:06:12;;;;;;;1.05;1.05;;;2.80;99.90;;;;;;6126317;23;20017;-78
2024/02/28 00:08:38;;;;;;;1.80;1.70;;;2.10;99.90;;;;;;6101964;23;20080;-78
2024/02/28 00:11:04;;;;;;;0.90;0.90;;;2.30;99.90;;;;;;6101277;23;20092;-78
2024/02/28 00:13:29;;;;;;;2.40;1.95;;;2.10;99.90;;;;;;6102256;23;20060;-78
2024/02/28 00:15:55;;;;;;;1.10;1.10;;;3.00;99.90;;;;;;6101787;23;20014;-78
2024/02/28 00:18:21;;;;;;;0.80;0.80;;;2.20;99.90;;;;;;6102143;23;20010;-79
2024/02/28 00:20:46;;;;;;;0.80;0.80;;;2.30;99.90;;;;;;6101933;23;20045;-79
2024/02/28 00:23:12;;;;;;;0.70;0.70;;;2.10;99.90;;;;;;6101338;23;20024;-78
2024/02/28 00:25:38;;;;;;;0.90;0.90;;;3.50;99.90;;;;;;6126058;23;20185;-79
2024/02/28 00:28:04;;;;;;;0.63;0.63;;;2.60;99.90;;;;;;6152340;23;20189;-79
2024/02/28 00:30:29;;;;;;;4.25;3.22;;;3.70;99.90;;;;;;6078747;23;20024;-77
2024/02/28 00:32:55;;;;;;;1.20;1.13;;;3.20;99.90;;;;;;6078169;23;20014;-78
2024/02/28 00:35:21;;;;;;;0.55;0.55;;;2.90;99.90;;;;;;6102192;23;20009;-79
2024/02/28 00:37:47;;;;;;;0.60;0.60;;;2.10;99.90;;;;;;6152947;23;20321;-78
2024/02/28 00:40:12;;;;;;;;;;;2.40;99.90;;;;;;6127159;23;20168;-79
2024/02/28 00:42:38;;;;;;;1.35;1.35;;;2.20;99.90;;;;;;6127385;23;19952;-79
2024/02/28 00:45:04;;;;;;;0.80;0.80;;;2.60;99.90;;;;;;6126969;23;20017;-78
2024/02/28 00:47:30;;;;;;;0.82;0.82;;;2.20;99.90;;;;;;6126647;23;20013;-78
2024/02/28 00:49:55;;;;;;;0.60;0.60;;;2.50;99.90;;;;;;6088430;23;20049;-79
2024/02/28 00:52:21;;;;;;;0.52;0.52;;;2.60;99.90;;;;;;6147524;23;20060;-79
2024/02/28 00:54:47;;;;;;;0.65;0.65;;;2.20;99.90;;;;;;6128184;23;20025;-79
2024/02/28 00:57:13;;;;;;;1.25;1.25;;;3.20;99.90;;;;;;6127432;23;20501;-79
2024/02/28 00:59:38;;;;;;;0.68;0.68;;;2.70;99.90;;;;;;6126402;23;20013;-78
2024/02/28 01:02:04;;;;;;;1.52;1.48;;;3.60;99.90;;;;;;6125814;23;20100;-78
2024/02/28 01:04:30;;;;;;;2.05;1.95;;;2.30;99.90;;;;;;6101713;23;20028;-77
2024/02/28 01:06:55;;;;;;;1.23;1.23;;;2.30;99.90;;;;;;6101007;23;20010;-78
2024/02/28 01:09:22;;;;;;;0.82;0.80;;;2.20;99.90;;;;;;6127716;23;20017;-78
2024/02/28 01:11:47;;;;;;;1.40;1.30;;;2.20;99.90;;;;;;6079751;23;20021;-78
2024/02/28 01:14:13;;;;;;;0.88;0.88;;;2.20;99.90;;;;;;6103124;23;20021;-78
2024/02/28 01:16:39;;;;;;;0.77;0.77;;;3.70;99.90;;;;;;6155279;23;20451;-79
2024/02/28 01:19:04;;;;;;;0.77;0.77;;;3.00;99.90;;;;;;6104467;23;20070;-78
2024/02/28 01:21:30;;;;;;;3.50;1.67;;;2.90;99.90;;;;;;6128449;23;20076;-78
2024/02/28 01:23:56;;;;;;;0.70;0.70;;;2.10;99.90;;;;;;6103607;23;20052;-79
2024/02/28 01:26:22;;;;;;;0.57;0.57;;;2.10;99.90;;;;;;6154612;23;20013;-78
2024/02/28 01:28:48;;;;;;;;;;;2.10;99.90;;;;;;6129846;23;20018;-79
2024/02/28 01:31:14;;;;;;;0.60;0.60;;;2.10;99.90;;;;;;6128664;23;19916;-79
2024/02/28 01:33:40;;;;;;;1.58;1.48;;;2.10;99.90;;;;;;6091946;23;20528;-79
2024/02/28 01:36:10;;;;;;;0.95;0.95;;;2.20;99.90;;;;;;6129159;23;20014;-78
2024/02/28 01:38:36;;;;;;;1.05;1.05;;;2.60;99.90;;;;;;6155231;23;20072;-78
2024/02/28 01:41:02;;;;;;;0.60;0.60;;;2.20;99.90;;;;;;6104110;23;20013;-78
2024/02/28 01:43:28;;;;;;;0.73;0.73;;;2.20;99.90;;;;;;6116859;23;20367;-79
2024/02/28 01:45:53;;;;;;;0.50;0.50;;;3.60;99.90;;;;;;6117448;23;20463;-79
2024/02/28 01:48:19;;;;;;;0.85;0.85;;;3.20;99.90;;;;;;6100045;23;20013;-79
2024/02/28 01:50:46;;;;;;;0.60;0.60;;;2.20;99.90;;;;;;6104904;23;20096;-79
2024/02/28 01:53:13;;;;;;;1.20;1.20;;;2.20;99.90;;;;;;6103355;23;20025;-78
2024/02/28 01:55:40;;;;;;;0.70;0.70;;;2.20;99.90;;;;;;6104392;23;20020;-78
2024/02/28 01:58:06;;;;;;;0.60;0.60;;;2.20;99.90;;;;;;6104805;23;20021;-78
2024/02/28 02:00:33;;;;;;;1.67;1.45;;;2.20;99.90;;;;;;6129597;23;20009;-79
2024/02/28 02:03:03;;;;;;;2.60;1.20;;;2.40;99.90;;;;;;6155617;23;20459;-79
2024/02/28 02:05:29;;;;;;;0.95;0.95;;;2.30;99.90;;;;;;6129195;23;20114;-79
2024/02/28 02:07:56;;;;;;;;;;;2.90;99.90;;;;;;6154807;23;20014;-78
2024/02/28 02:10:23;;;;;;;;;;;2.20;99.90;;;;;;6130401;23;19916;-79
2024/02/28 02:12:48;;;;;;;0.70;0.70;;;3.90;99.90;;;;;;6129812;23;19919;-78
2024/02/28 02:15:14;;;;;;;2.08;1.98;;;2.50;99.90;;;;;;6128585;23;20021;-79
2024/02/28 02:17:40;;;;;;;1.55;1.45;;;2.70;99.90;;;;;;6099921;23;20456;-79
2024/02/28 02:20:09;;;;;;;1.45;1.38;;;2.20;99.90;;;;;;6147575;23;20017;-79
2024/02/28 02:22:38;;;;;;;0.80;0.80;;;2.20;99.90;;;;;;6128089;23;20017;-79
2024/02/28 02:25:04;;;;;;;0.65;0.65;;;2.20;99.90;;;;;;6128710;23;20017;-79
2024/02/28 02:27:30;;;;;;;3.30;1.45;;;2.20;99.90;;;;;;6128813;23;20032;-78
2024/02/28 02:29:56;;;;;;;0.80;0.80;;;2.50;99.90;;;;;;6104047;23;20542;-78
2024/02/28 02:32:21;;;;;;;0.90;0.90;;;2.60;99.90;;;;;;6127855;23;20495;-77
2024/02/28 02:34:47;;;;;;;1.42;1.35;;;2.20;99.90;;;;;;6102372;23;20076;-78
2024/02/28 02:37:13;;;;;;;3.97;3.25;;;3.20;99.90;;;;;;6116531;23;20025;-78
2024/02/28 02:39:38;;;;;;;1.58;1.27;;;3.50;99.90;;;;;;6127153;23;20021;-78
2024/02/28 02:42:04;;;;;;;1.30;1.30;;;2.50;99.90;;;;;;6153262;23;20099;-79
2024/02/28 02:44:30;;;;;;;0.68;0.68;;;2.20;99.90;;;;;;6130408;23;20064;-79
2024/02/28 02:46:56;;;;;;;2.97;0.90;;;2.20;99.90;;;;;;6129830;23;20088;-79
2024/02/28 02:49:21;;;;;;;2.25;1.75;;;2.20;99.90;;;;;;6128399;23;20029;-79
2024/02/28 02:51:47;;;;;;;0.70;0.70;;;3.20;99.90;;;;;;6128601;23;20467;-80
2024/02/28 02:54:13;;;;;;;0.90;0.90;;;1.60;99.90;;;;;;6128094;23;20013;-78
2024/02/28 02:56:42;;;;;;;2.38;1.65;;;2.20;99.90;;;;;;6155630;23;20343;-78
2024/02/28 02:59:12;;;;;;;1.00;1.00;;;3.60;99.90;;;;;;6152698;23;20016;-78
2024/02/28 03:01:38;;;;;;;2.17;2.08;;;2.20;99.90;;;;;;6129348;23;20363;-78
2024/02/28 03:04:04;;;;;;;0.90;0.90;;;3.00;99.90;;;;;;6127552;23;20018;-78
2024/02/28 03:06:32;;;;;;;0.63;0.63;;;3.00;99.90;;;;;;6127477;23;20031;-78
2024/02/28 03:08:57;;;;;;;1.00;1.00;;;2.20;99.90;;;;;;6103846;23;20352;-79
2024/02/28 03:11:23;;;;;;;5.18;2.30;;;3.20;99.90;;;;;;6102631;23;20025;-78
2024/02/28 03:13:49;;;;;;;0.90;0.90;;;3.80;99.90;;;;;;6127728;23;20014;-79
2024/02/28 03:16:14;;;;;;;1.58;1.58;;;2.20;99.90;;;;;;6127611;23;20495;-78
2024/02/28 03:18:40;;;;;;;0.85;0.85;;;2.40;99.90;;;;;;6102460;23;20402;-78
2024/02/28 03:21:06;;;;;;;0.80;0.80;;;2.20;99.90;;;;;;6153481;23;20045;-78
2024/02/28 03:23:32;;;;;;;0.73;0.73;;;3.60;99.90;;;;;;6099603;23;20022;-79
2024/02/28 03:25:58;;;;;;;1.05;1.05;;;2.70;99.90;;;;;;6127673;23;20036;-79
2024/02/28 03:28:24;;;;;;;0.60;0.60;;;2.10;99.90;;;;;;6104812;23;20443;-79
2024/02/28 03:30:49;;;;;;;1.30;1.27;;;2.10;99.90;;;;;;6154904;23;20017;-79
2024/02/28 03:33:15;;;;;;;0.70;0.70;;;2.60;99.90;;;;;;6103480;23;20103;-79
2024/02/28 03:35:41;;;;;;;0.75;0.75;;;2.90;99.90;;;;;;6128632;23;20036;-78
2024/02/28 03:38:06;;;;;;;0.70;0.70;;;2.00;99.90;;;;;;6126519;23;20017;-79
2024/02/28 03:40:32;;;;;;;0.70;0.70;;;2.70;99.90;;;;;;6102228;23;20064;-78
2024/02/28 03:42:59;;;;;;;1.67;1.38;;;2.40;99.90;;;;;;6127478;23;20472;-78
2024/02/28 03:45:28;;;;;;;1.40;1.40;;;1.90;99.90;;;;;;6102622;23;20024;-77
2024/02/28 03:47:54;;;;;;;0.70;0.70;;;2.20;99.90;;;;;;6127879;23;20075;-78
2024/02/28 03:50:19;;;;;;;0.88;0.88;;;2.00;99.90;;;;;;6154815;23;20021;-79
2024/02/28 03:52:45;;;;;;;0.60;0.60;;;2.10;99.90;;;;;;6135932;23;20017;-78
2024/02/28 03:55:11;;;;;;;0.70;0.70;;;2.90;99.90;;;;;;6126946;23;20115;-78
2024/02/28 03:57:36;;;;;;;1.13;1.13;;;2.20;99.90;;;;;;6128105;23;20092;-79
2024/02/28 04:00:04;;;;;;;2.72;1.75;;;2.20;99.90;;;;;;6102404;23;20044;-78
2024/02/28 04:02:30;;;;;;;1.60;1.52;;;2.20;99.90;;;;;;6127302;23;20041;-78
2024/02/28 04:04:56;;;;;;;5.03;4.63;;;2.30;99.90;;;;;;6154770;23;20025;-78
2024/02/28 04:07:21;;;;;;;0.60;0.60;;;2.30;99.90;;;;;;6127755;23;20128;-79
2024/02/28 04:09:47;;;;;;;0.70;0.70;;;3.20;99.90;;;;;;6127578;23;20018;-77
2024/02/28 04:12:12;;;;;;;0.70;0.70;;;3.80;99.90;;;;;;6102296;23;20025;-77
2024/02/28 04:14:38;;;;;;;1.10;1.10;;;3.10;99.90;;;;;;6125981;23;20019;-78
2024/02/28 04:17:04;;;;;;;2.83;1.58;;;2.40;99.90;;;;;;6101989;23;20352;-78
2024/02/28 04:19:37;;;;;;;1.05;1.05;;;2.50;99.90;;;;;;6102516;23;20459;-78
2024/02/28 04:22:03;;;;;;;0.75;0.75;;;2.50;99.90;;;;;;6078783;23;20049;-77
2024/02/28 04:24:28;;;;;;;;;;;2.50;99.90;;;;;;6150988;23;20025;-78
2024/02/28 04:26:54;;;;;;;0.98;0.93;;;2.40;99.90;;;;;;6152773;23;19923;-79
2024/02/28 04:29:20;;;;;;;1.05;1.05;;;2.70;99.90;;;;;;6102249;23;20085;-79
2024/02/28 04:31:46;;;;;;;0.70;0.70;;;2.60;99.90;;;;;;6102073;23;20041;-79
2024/02/28 04:34:11;;;;;;;1.90;1.80;;;2.60;99.90;;;;;;6102900;23;20017;-80
2024/02/28 04:36:37;;;;;;;0.82;0.82;;;2.70;99.90;;;;;;6127652;23;20018;-80
2024/02/28 04:39:05;;;;;;;2.80;2.70;;;3.80;99.90;;;;;;6127820;23;20088;-78
2024/02/28 04:41:31;;;;;;;0.80;0.80;;;2.70;99.90;;;;;;6127652;23;20018;-79
2024/02/28 04:43:57;;;;;;;3.53;2.00;;;3.30;99.90;;;;;;6156081;23;20346;-79
2024/02/28 04:46:23;;;;;;;0.55;0.55;;;3.20;99.90;;;;;;6154998;23;20130;-79
2024/02/28 04:48:48;;;;;;;0.60;0.60;;;3.10;99.90;;;;;;6129027;23;20021;-79
2024/02/28 04:51:17;;;;;;;0.60;0.60;;;3.60;99.90;;;;;;6104080;23;20076;-78
2024/02/28 04:53:43;;;;;;;0.63;0.63;;;2.80;99.90;;;;;;6129210;23;20013;-79
2024/02/28 04:56:09;;;;;;;;;;;2.80;99.90;;;;;;6156437;23;20768;-78
2024/02/28 04:58:36;;;;;;;1.92;1.70;;;2.80;99.90;;;;;;6154218;23;20079;-79
2024/02/28 05:01:03;;;;;;;0.80;0.80;;;3.90;99.90;;;;;;6128471;23;20506;-79
2024/02/28 05:03:28;;;;;;;0.90;0.90;;;2.90;99.90;;;;;;6152954;23;20351;-78
2024/02/28 05:05:54;;;;;;;0.80;0.80;;;3.50;99.90;;;;;;6127423;23;20017;-79
2024/02/28 05:08:20;;;;;;;0.45;0.45;;;4.00;99.90;;;;;;6128137;23;20107;-79
2024/02/28 05:10:46;;;;;;;;;;;2.90;99.90;;;;;;6102944;23;20014;-78
2024/02/28 05:13:12;;;;;;;0.60;0.60;;;2.90;99.90;;;;;;6153800;23;19916;-79
2024/02/28 05:15:39;;;;;;;1.10;1.10;;;2.90;99.90;;;;;;6103699;23;20017;-79
2024/02/28 05:18:05;;;;;;;1.95;1.85;;;3.00;99.90;;;;;;6103672;23;20025;-78
2024/02/28 05:20:31;;;;;;;2.78;2.15;;;3.00;99.90;;;;;;6128092;23;20017;-79
2024/02/28 05:22:57;;;;;;;3.75;3.15;;;3.00;99.90;;;;;;6080722;23;20021;-80
2024/02/28 05:25:23;;;;;;;1.30;1.30;;;3.00;99.90;;;;;;6130103;23;20025;-80
2024/02/28 05:27:48;;;;;;;1.38;1.02;;;3.30;99.90;;;;;;6155650;23;20029;-79
2024/02/28 05:30:14;;;;;;;1.15;1.15;;;4.00;99.90;;;;;;6130009;23;20020;-79
2024/02/28 05:32:40;;;;;;;1.02;0.93;;;4.30;99.90;;;;;;6130758;23;20052;-80
2024/02/28 05:35:06;;;;;;;0.88;0.88;;;3.30;99.90;;;;;;6130444;23;20496;-80
2024/02/28 05:37:31;;;;;;;1.77;1.20;;;3.10;99.90;;;;;;6128896;23;20055;-78
2024/02/28 05:39:58;;;;;;;1.35;1.25;;;3.70;99.90;;;;;;6129019;23;20041;-79
2024/02/28 05:42:24;;;;;;;2.03;1.90;;;4.70;99.90;;;;;;6155535;23;20009;-79
2024/02/28 05:44:52;;;;;;;0.50;0.50;;;3.20;99.90;;;;;;6104423;23;20021;-78
2024/02/28 05:47:18;;;;;;;0.88;0.88;;;3.20;99.90;;;;;;6154725;23;20462;-79
2024/02/28 05:49:44;;;;;;;1.42;1.33;;;3.20;99.90;;;;;;6127751;23;20025;-79
2024/02/28 05:52:10;;;;;;;0.90;0.90;;;3.20;99.90;;;;;;6130276;23;20064;-78
2024/02/28 05:54:36;;;;;;;4.45;1.83;;;3.20;99.90;;;;;;6154580;23;20431;-79
2024/02/28 05:57:02;;;;;;;0.70;0.70;;;4.50;99.90;;;;;;6104463;23;20014;-79
2024/02/28 05:59:28;;;;;;;0.85;0.85;;;3.20;99.90;;;;;;6103705;23;20124;-79
2024/02/28 06:01:54;;;;;;;2.75;1.73;;;4.30;99.90;;;;;;6104020;23;20022;-78
2024/02/28 06:04:19;;;;;;;;;;;3.30;99.90;;;;;;6154754;23;20017;-78
2024/02/28 06:06:45;;;;;;;0.60;0.60;;;3.20;99.90;;;;;;6154657;23;19912;-78
2024/02/28 06:09:11;;;;;;;2.50;2.35;;;4.30;99.90;;;;;;6154736;23;20024;-79
2024/02/28 06:11:37;;;;;;;0.70;0.70;;;4.40;99.90;;;;;;6128261;23;20444;-79
2024/02/28 06:14:04;;;;;;;1.25;1.25;;;3.50;99.90;;;;;;6128725;23;20017;-80
2024/02/28 06:16:30;;;;;;;1.58;1.48;;;4.40;99.90;;;;;;6133793;23;20014;-80
2024/02/28 06:18:55;;;;;;;;;;;3.30;99.90;;;;;;6132440;23;20010;-80
2024/02/28 06:21:25;;;;;;;1.10;1.10;;;3.40;99.90;;;;;;6159091;23;19978;-81
2024/02/28 06:23:51;;;;;;;1.80;1.70;;;3.30;99.90;;;;;;6156892;23;20013;-80
2024/02/28 06:26:17;;;;;;;0.80;0.80;;;3.30;99.90;;;;;;6105712;23;20550;-80
2024/02/28 06:28:47;;;;;;;1.05;1.02;;;3.30;99.90;;;;;;6130286;23;20529;-78
2024/02/28 06:31:16;;;;;;;1.02;1.02;;;4.00;99.90;;;;;;6131152;23;20085;-79
2024/02/28 06:33:43;;;;;;;0.60;0.60;;;3.40;99.90;;;;;;6129789;23;20025;-80
2024/02/28 06:36:08;;;;;;;0.77;0.77;;;3.30;99.90;;;;;;6129753;23;20072;-79
2024/02/28 06:38:34;;;;;;;0.60;0.60;;;3.30;99.90;;;;;;6154871;23;20021;-77
2024/02/28 06:41:05;;;;;;;0.63;0.63;;;3.30;99.90;;;;;;6126583;23;20021;-79
2024/02/28 06:43:35;;;;;;;0.52;0.52;;;3.30;99.90;;;;;;6149493;23;20025;-80
2024/02/28 06:46:01;;;;;;;0.50;0.50;;;4.20;99.90;;;;;;6131197;23;20022;-80
2024/02/28 06:48:27;;;;;;;;;;;3.40;99.90;;;;;;6159110;23;20013;-79
2024/02/28 06:50:53;;;;;;;2.33;2.15;;;4.60;99.90;;;;;;6133425;23;19920;-78
2024/02/28 06:53:18;;;;;;;3.08;1.63;;;4.70;99.90;;;;;;6131822;23;20169;-81
2024/02/28 06:55:45;;;;;;;1.20;1.20;;;4.70;99.90;;;;;;6157318;23;20009;-82
2024/02/28 06:58:11;;;;;;;5.18;4.88;;;3.50;99.90;;;;;;6132267;23;20013;-80
2024/02/28 07:00:37;;;;;;;2.47;2.03;;;3.60;99.90;;;;;;6106630;23;20013;-81
2024/02/28 07:03:04;;;;;;;1.70;1.38;;;3.50;99.90;;;;;;6083963;23;20048;-80
2024/02/28 07:05:29;;;;;;;1.77;1.63;;;3.50;99.90;;;;;;6158706;23;20013;-81
2024/02/28 07:07:55;;;;;;;1.13;1.10;;;3.50;99.90;;;;;;6109586;23;20020;-81
2024/02/28 07:10:21;;;;;;;0.90;0.90;;;3.90;99.90;;;;;;6110383;23;20041;-81
2024/02/28 07:12:47;;;;;;;2.45;1.55;;;3.90;99.90;;;;;;6094240;23;20017;-81
2024/02/28 07:15:12;;;;;;;1.75;1.52;;;3.50;99.90;;;;;;6085118;23;20018;-81
2024/02/28 07:17:38;;;;;;;0.70;0.70;;;3.90;99.90;;;;;;6108313;23;20013;-81
2024/02/28 07:20:04;;;;;;;0.95;0.95;;;3.40;99.90;;;;;;6107822;23;20444;-81
2024/02/28 07:22:32;;;;;;;0.75;0.75;;;3.60;99.90;;;;;;6134691;23;20014;-80
2024/02/28 07:24:58;;;;;;;0.52;0.52;;;2.30;99.90;;;;;;6159130;23;20028;-81
2024/02/28 07:27:24;;;;;;;1.15;1.15;;;3.60;99.90;;;;;;6157203;23;20522;-79
2024/02/28 07:29:50;;;;;;;1.35;1.35;;;4.10;99.90;;;;;;6110248;23;20013;-79
2024/02/28 07:32:15;;;;;;;0.80;0.80;;;5.20;99.90;;;;;;6133680;23;20013;-81
2024/02/28 07:34:42;;;;;;;1.15;1.15;;;4.00;99.90;;;;;;6084755;23;20118;-81
2024/02/28 07:37:07;;;;;;;1.17;1.15;;;3.70;99.90;;;;;;6133497;23;20049;-82
2024/02/28 07:39:33;;;;;;;1.23;1.20;;;3.80;99.90;;;;;;6108910;23;20061;-81
2024/02/28 07:41:59;;;;;;;1.42;1.25;;;4.00;99.90;;;;;;6129952;23;20073;-81
2024/02/28 07:44:25;;;;;;;4.70;1.77;;;3.90;99.90;;;;;;6133202;23;20032;-81
2024/02/28 07:46:51;;;;;;;1.42;1.10;;;3.80;99.90;;;;;;6107478;23;20014;-81
2024/02/28 07:49:17;;;;;;;1.63;1.52;;;4.00;99.90;;;;;;6108348;23;20124;-80
2024/02/28 07:51:43;;;;;;;0.77;0.77;;;4.00;99.90;;;;;;6129976;23;20025;-80
2024/02/28 07:54:08;;;;;;;3.88;1.48;;;5.10;99.90;;;;;;6133290;23;20018;-80
2024/02/28 07:56:34;;;;;;;0.80;0.80;;;4.60;99.90;;;;;;6107655;23;20397;-81
2024/02/28 07:59:00;;;;;;;0.63;0.63;;;5.50;99.90;;;;;;6105899;23;20020;-80
2024/02/28 08:01:26;;;;;;;1.10;1.10;;;4.40;99.90;;;;;;6106215;23;20459;-79
2024/02/28 08:03:51;;;;;;;0.98;0.98;;;4.30;99.90;;;;;;6083466;23;20017;-81
2024/02/28 08:06:17;;;;;;;2.25;2.15;;;5.40;99.90;;;;;;6108553;23;20028;-82
2024/02/28 08:08:46;;;;;;;1.00;1.00;;;4.60;99.90;;;;;;6132207;23;20107;-81
2024/02/28 08:11:12;;;;;;;1.10;1.10;;;4.00;99.90;;;;;;6133651;23;20024;-82
2024/02/28 08:13:38;;;;;;;;;;;4.50;99.90;;;;;;6085722;23;20017;-80
2024/02/28 08:16:04;;;;;;;1.85;1.33;;;4.70;99.90;;;;;;6133570;23;19919;-82
2024/02/28 08:18:30;;;;;;;;;;;4.60;99.90;;;;;;6134321;23;20020;-80
2024/02/28 08:20:57;;;;;;;5.38;2.13;;;4.70;99.90;;;;;;6158023;23;20258;-80
2024/02/28 08:23:23;;;;;;;2.42;0.88;;;4.80;99.90;;;;;;6084241;23;20021;-78
2024/02/28 08:25:50;;;;;;;1.25;1.23;;;4.80;99.90;;;;;;6153651;23;20470;-77
2024/02/28 08:28:16;;;;;;;1.48;1.45;;;5.30;99.90;;;;;;6151834;23;20025;-78
2024/02/28 08:30:42;;;;;;;1.05;0.95;;;4.40;99.90;;;;;;6126830;23;20012;-77
2024/02/28 08:33:10;;;;;;;1.30;0.90;;;5.50;99.90;;;;;;6127299;23;20036;-76
2024/02/28 08:35:36;;;;;;;1.60;1.50;;;5.40;99.90;;;;;;6127750;23;20056;-78
2024/02/28 08:38:03;;;;;;;;;;;5.00;99.90;;;;;;6127885;23;20456;-76
2024/02/28 08:40:30;;;;;;;0.85;0.85;;;5.10;99.90;;;;;;6153215;23;20354;-76
2024/02/28 08:42:56;;;;;;;1.95;1.85;;;5.10;99.90;;;;;;6153312;23;20025;-77
2024/02/28 08:45:23;;;;;;;2.95;1.80;;;5.10;99.90;;;;;;6128140;23;20451;-77
2024/02/28 08:47:49;;;;;;;1.48;1.42;;;5.20;99.90;;;;;;6154714;23;20045;-77
2024/02/28 08:50:15;;;;;;;0.75;0.75;;;5.30;99.90;;;;;;6127676;23;20355;-76
2024/02/28 08:52:41;;;;;;;2.97;2.78;;;5.30;99.90;;;;;;6128334;23;20013;-76
2024/02/28 08:55:07;;;;;;;5.07;3.50;;;5.50;99.90;;;;;;6127416;23;20025;-77
2024/02/28 08:57:34;;;;;;;1.20;1.20;;;5.60;99.90;;;;;;6152570;23;20006;-77
2024/02/28 09:00:00;;;;;;;1.73;1.55;;;5.90;99.90;;;;;;6153299;23;20024;-77
2024/02/28 09:02:25;;;;;;;1.40;1.30;;;6.60;99.90;;;;;;6103828;23;20017;-77
2024/02/28 09:04:52;;;;;;;3.05;2.75;;;6.40;99.90;;;;;;6154445;23;20565;-77
2024/02/28 09:07:19;;;;;;;1.02;1.02;;;5.90;99.90;;;;;;6126039;23;20017;-79
2024/02/28 09:09:45;;;;;;;2.10;2.00;;;5.90;99.90;;;;;;6127324;23;20025;-76
2024/02/28 09:12:11;;;;;;;;;;;6.00;99.90;;;;;;6102208;23;20017;-75
2024/02/28 09:14:36;;;;;;;1.48;1.38;;;6.20;99.90;;;;;;6127923;23;19927;-77
2024/02/28 09:17:05;;;;;;;0.85;0.85;;;6.10;99.90;;;;;;6153301;23;20320;-77
2024/02/28 09:19:31;;;;;;;2.53;2.42;;;6.20;99.90;;;;;;6153569;23;20036;-76
2024/02/28 09:21:57;;;;;;;;;;;6.20;99.90;;;;;;6102287;23;20092;-77
2024/02/28 09:24:24;;;;;;;0.82;0.82;;;6.30;99.90;;;;;;6154293;23;19919;-77
2024/02/28 09:26:50;;;;;;;1.10;1.10;;;6.30;99.90;;;;;;6126650;23;20037;-77
2024/02/28 09:29:15;;;;;;;0.60;0.60;;;6.40;99.90;;;;;;6152989;23;20021;-77
2024/02/28 09:31:41;;;;;;;1.05;1.05;;;6.50;99.90;;;;;;6128726;23;20027;-77
2024/02/28 09:34:09;;;;;;;3.13;2.85;;;6.60;99.90;;;;;;6154133;23;20382;-77
2024/02/28 09:36:45;;;;;;;1.90;1.80;;;6.50;99.90;;;;;;6127585;23;20022;-76
2024/02/28 09:39:17;;;;;;;1.15;1.15;;;6.50;99.90;;;;;;6153481;23;20016;-77
2024/02/28 09:41:43;;;;;;;0.98;0.95;;;6.50;99.90;;;;;;6150673;23;20021;-78
2024/02/28 09:44:09;;;;;;;3.40;1.45;;;6.60;99.90;;;;;;6103551;23;20024;-77
2024/02/28 09:46:35;;;;;;;7.85;2.78;;;6.60;99.90;;;;;;6154095;23;20518;-76
2024/02/28 09:49:03;;;;;;;;;;;6.50;99.90;;;;;;6153364;23;20088;-77
2024/02/28 09:51:30;;;;;;;1.50;1.40;;;6.50;99.90;;;;;;6128731;23;20232;-77
2024/02/28 09:53:57;;;;;;;2.50;1.50;;;6.50;99.90;;;;;;6155096;23;20017;-76
2024/02/28 09:56:24;;;;;;;1.15;1.15;;;6.40;99.90;;;;;;6153887;23;20020;-77
2024/02/28 09:58:50;;;;;;;2.75;1.10;;;6.50;99.90;;;;;;6153686;23;20021;-78
2024/02/28 10:01:17;;;;;;;;;;;6.60;99.90;;;;;;6127903;23;20367;-78
2024/02/28 10:03:45;;;;;;;3.75;1.15;;;6.60;99.90;;;;;;6154278;23;19959;-78
2024/02/28 10:06:11;;;;;;;1.17;1.15;;;6.60;99.90;;;;;;6153384;23;20343;-78
2024/02/28 10:08:37;;;;;;;7.28;1.95;;;6.70;99.90;;;;;;6127301;23;20017;-78
2024/02/28 10:11:03;;;;;;;0.88;0.88;;;6.70;99.90;;;;;;6154016;23;20023;-77
2024/02/28 10:13:28;;;;;;;0.80;0.80;;;6.90;99.90;;;;;;6126382;23;20021;-78
2024/02/28 10:15:54;;;;;;;2.60;1.17;;;6.90;99.90;;;;;;6128236;23;20139;-77
2024/02/28 10:18:20;;;;;;;2.70;1.75;;;6.90;99.90;;;;;;6153847;23;20025;-76
2024/02/28 10:20:47;;;;;;;3.95;3.72;;;7.00;99.90;;;;;;6153798;23;20053;-77
2024/02/28 10:23:13;;;;;;;5.75;2.42;;;7.10;99.90;;;;;;6153001;23;20065;-78
2024/02/28 10:25:46;;;;;;;1.05;1.05;;;7.10;99.90;;;;;;6153639;23;20064;-77
2024/02/28 10:28:14;;;;;;;1.17;1.08;;;7.10;99.90;;;;;;6125757;23;20032;-78
2024/02/28 10:30:43;;;;;;;0.65;0.65;;;7.20;99.90;;;;;;6153563;23;20016;-77
2024/02/28 10:33:16;;;;;;;1.90;1.80;;;7.20;99.90;;;;;;6126961;23;20055;-76
2024/02/28 10:35:43;;;;;;;1.20;0.90;;;7.10;99.90;;;;;;6127989;23;20403;-77
2024/02/28 10:38:13;;;;;;;1.67;1.58;;;7.10;99.90;;;;;;6101387;23;20107;-78
2024/02/28 10:40:42;;;;;;;0.98;0.98;;;7.00;99.90;;;;;;6126335;23;20021;-77
2024/02/28 10:43:09;;;;;;;3.05;2.88;;;7.10;99.90;;;;;;6150683;23;20024;-77
2024/02/28 10:45:39;;;;;;;3.22;2.90;;;7.30;99.90;;;;;;6153578;23;20140;-77
2024/02/28 10:48:06;;;;;;;2.40;1.60;;;7.10;99.90;;;;;;6127160;23;20029;-77
2024/02/28 10:50:32;;;;;;;0.50;0.50;;;7.10;99.90;;;;;;6127053;23;20017;-77
2024/02/28 10:53:02;;;;;;;1.65;1.55;;;7.10;99.90;;;;;;6102397;23;20025;-78
2024/02/28 10:55:36;;;;;;;1.13;1.13;;;7.10;99.90;;;;;;6152225;23;20057;-77
2024/02/28 10:58:07;;;;;;;1.13;0.95;;;7.10;99.90;;;;;;6124907;23;20516;-77
2024/02/28 11:00:35;;;;;;;2.83;2.70;;;7.10;99.90;;;;;;6126398;23;20017;-77
2024/02/28 11:03:03;;;;;;;2.85;2.15;;;7.90;99.90;;;;;;6151759;23;20013;-77
2024/02/28 11:05:40;;;;;;;1.38;0.82;;;7.10;99.90;;;;;;6127374;23;20470;-78
2024/02/28 11:08:29;;;;;;;2.05;1.17;;;7.20;99.90;;;;;;6153823;23;20017;-77
2024/02/28 11:11:03;;;;;;;1.20;1.20;;;7.20;99.90;;;;;;6128124;23;20467;-78
2024/02/28 11:13:30;;;;;;;0.80;0.80;;;7.40;99.90;;;;;;6125490;23;20049;-78
2024/02/28 11:16:10;;;;;;;0.70;0.70;;;7.30;99.90;;;;;;6152879;23;20021;-77
2024/02/28 11:18:47;;;;;;;1.80;1.23;;;7.40;99.90;;;;;;6126553;23;20466;-77
2024/02/28 11:21:16;;;;;;;1.38;1.30;;;7.40;99.90;;;;;;6101903;23;20014;-77
2024/02/28 11:23:47;;;;;;;3.97;1.75;;;7.40;99.90;;;;;;6125433;23;20017;-79
2024/02/28 11:26:13;;;;;;;1.48;1.38;;;7.40;99.90;;;;;;6125052;23;20353;-77
2024/02/28 11:28:39;;;;;;;6.78;3.28;;;7.40;99.90;;;;;;6099146;23;20025;-77
2024/02/28 11:31:05;;;;;;;1.05;0.95;;;8.10;99.90;;;;;;6126144;23;20021;-76
2024/02/28 11:33:33;;;;;;;6.45;1.35;;;7.40;99.90;;;;;;6125430;23;20020;-78
2024/02/28 11:35:59;;;;;;;3.13;1.25;;;7.50;99.90;;;;;;6152440;23;20010;-78
2024/02/28 11:38:26;;;;;;;2.13;1.90;;;7.70;99.90;;;;;;6100343;23;20028;-76
2024/02/28 11:40:52;;;;;;;3.40;1.30;;;7.90;99.90;;;;;;6152463;23;20012;-77
2024/02/28 11:43:18;;;;;;;4.65;2.58;;;7.90;99.90;;;;;;6124654;23;20045;-77
2024/02/28 11:45:46;;;;;;;3.55;3.35;;;8.10;99.90;;;;;;6127078;23;20021;-77
2024/02/28 11:48:16;;;;;;;1.33;1.25;;;8.30;99.90;;;;;;6154045;23;20014;-78
2024/02/28 11:50:42;;;;;;;1.98;1.88;;;8.40;99.90;;;;;;6126846;23;20013;-78
2024/02/28 11:53:08;;;;;;;;;;;8.50;99.90;;;;;;6102722;23;20332;-78
2024/02/28 11:55:34;;;;;;;3.22;2.00;;;8.60;99.90;;;;;;6125552;23;19923;-76
2024/02/28 11:58:00;;;;;;;1.65;0.98;;;8.50;99.90;;;;;;6125086;23;20463;-77
2024/02/28 12:00:25;;;;;;;;;;;8.60;99.90;;;;;;6126259;23;20056;-77
2024/02/28 12:02:51;;;;;;;2.63;2.33;;;8.70;99.90;;;;;;6151780;23;19924;-76
2024/02/28 12:05:19;;;;;;;1.77;1.67;;;8.70;99.90;;;;;;6100935;23;20562;-76
2024/02/28 12:07:45;;;;;;;1.90;1.33;;;8.70;99.90;;;;;;6124753;23;20036;-78
2024/02/28 12:10:11;;;;;;;0.93;0.93;;;8.60;99.90;;;;;;6151882;23;20471;-77
2024/02/28 12:12:39;;;;;;;1.38;1.27;;;8.50;99.90;;;;;;6149520;23;20029;-77
2024/02/28 12:15:05;;;;;;;1.70;1.60;;;8.40;99.90;;;;;;6125689;23;20017;-77
2024/02/28 12:17:31;;;;;;;2.60;1.35;;;8.30;99.90;;;;;;6149935;23;20036;-77
2024/02/28 12:20:01;;;;;;;1.85;1.75;;;8.30;99.90;;;;;;6124376;23;20018;-77
2024/02/28 12:22:26;;;;;;;3.20;2.15;;;8.30;99.90;;;;;;6150760;23;20018;-77
2024/02/28 12:24:53;;;;;;;1.23;1.15;;;8.30;99.90;;;;;;6124665;23;20118;-77
2024/02/28 12:27:19;;;;;;;1.42;1.35;;;8.20;99.90;;;;;;6123913;23;20056;-77
2024/02/28 12:29:45;;;;;;;2.15;1.25;;;8.20;99.90;;;;;;6100613;23;20359;-77
2024/02/28 12:32:12;;;;;;;1.63;1.52;;;8.30;99.90;;;;;;6125229;23;20021;-77
2024/02/28 12:34:38;;;;;;;1.45;1.00;;;8.20;99.90;;;;;;6099862;23;20032;-76
2024/02/28 12:37:04;;;;;;;1.35;1.30;;;8.20;99.90;;;;;;6112279;23;20009;-76
2024/02/28 12:39:34;;;;;;;1.85;1.40;;;8.10;99.90;;;;;;6148219;23;20029;-77
2024/02/28 12:42:00;;;;;;;1.63;1.52;;;8.00;99.90;;;;;;6123591;23;20017;-77
2024/02/28 12:44:26;;;;;;;1.52;1.48;;;7.90;99.90;;;;;;6149829;23;20400;-77
2024/02/28 12:46:51;;;;;;;1.08;1.05;;;7.90;99.90;;;;;;6124084;23;20075;-77
2024/02/28 12:49:17;;;;;;;0.63;0.63;;;7.90;99.90;;;;;;6124171;23;20665;-77
2024/02/28 12:51:45;;;;;;;1.35;1.35;;;8.00;99.90;;;;;;6123467;23;20197;-77
2024/02/28 12:54:15;;;;;;;2.42;2.33;;;8.00;99.90;;;;;;6150531;23;20410;-77
2024/02/28 12:56:43;;;;;;;1.20;1.10;;;8.00;99.90;;;;;;6097988;23;20014;-77
2024/02/28 12:59:09;;;;;;;3.30;1.90;;;8.00;99.90;;;;;;6124011;23;20464;-77